sensor_id;sensor_type;location;lat;lon;timestamp;P1;durP1;ratioP1;P2;durP2;ratioP2
13807;SDS011;40769;51.512;5.494;2023-06-22T00:00:49;2.83;;;2.63;;
13807;SDS011;40769;51.512;5.494;2023-06-22T00:03:17;2.70;;;2.50;;
13807;SDS011;40769;51.512;5.494;2023-06-22T00:05:43;3.58;;;3.28;;
13807;SDS011;40769;51.512;5.494;2023-06-22T00:08:08;3.13;;;2.85;;
13807;SDS011;40769;51.512;5.494;2023-06-22T00:10:34;3.45;;;3.15;;
13807;SDS011;40769;51.512;5.494;2023-06-22T00:13:00;3.95;;;3.55;;
13807;SDS011;40769;51.512;5.494;2023-06-22T00:15:25;4.32;;;3.85;;
13807;SDS011;40769;51.512;5.494;2023-06-22T00:17:52;3.08;;;2.88;;
13807;SDS011;40769;51.512;5.494;2023-06-22T00:20:17;3.83;;;3.50;;
13807;SDS011;40769;51.512;5.494;2023-06-22T00:22:43;3.20;;;2.95;;
13807;SDS011;40769;51.512;5.494;2023-06-22T00:25:09;2.53;;;2.33;;
13807;SDS011;40769;51.512;5.494;2023-06-22T00:27:36;3.22;;;2.92;;
13807;SDS011;40769;51.512;5.494;2023-06-22T00:30:02;2.38;;;2.17;;
13807;SDS011;40769;51.512;5.494;2023-06-22T00:32:28;2.75;;;2.50;;
13807;SDS011;40769;51.512;5.494;2023-06-22T00:34:54;2.80;;;2.60;;
13807;SDS011;40769;51.512;5.494;2023-06-22T00:37:19;3.78;;;3.47;;
13807;SDS011;40769;51.512;5.494;2023-06-22T00:39:47;2.42;;;2.22;;
13807;SDS011;40769;51.512;5.494;2023-06-22T00:42:13;3.10;;;2.90;;
13807;SDS011;40769;51.512;5.494;2023-06-22T00:44:39;2.30;;;2.10;;
13807;SDS011;40769;51.512;5.494;2023-06-22T00:47:05;2.75;;;2.55;;
13807;SDS011;40769;51.512;5.494;2023-06-22T00:49:32;2.63;;;2.40;;
13807;SDS011;40769;51.512;5.494;2023-06-22T00:51:57;2.80;;;2.60;;
13807;SDS011;40769;51.512;5.494;2023-06-22T00:54:24;2.80;;;2.60;;
13807;SDS011;40769;51.512;5.494;2023-06-22T00:56:53;3.47;;;3.20;;
13807;SDS011;40769;51.512;5.494;2023-06-22T00:59:21;3.45;;;3.15;;
13807;SDS011;40769;51.512;5.494;2023-06-22T01:01:48;3.83;;;3.53;;
13807;SDS011;40769;51.512;5.494;2023-06-22T01:04:13;3.75;;;3.45;;
13807;SDS011;40769;51.512;5.494;2023-06-22T01:06:42;3.40;;;3.10;;
13807;SDS011;40769;51.512;5.494;2023-06-22T01:09:15;3.95;;;3.65;;
13807;SDS011;40769;51.512;5.494;2023-06-22T01:11:47;3.75;;;3.35;;
13807;SDS011;40769;51.512;5.494;2023-06-22T01:14:41;3.30;;;3.10;;
13807;SDS011;40769;51.512;5.494;2023-06-22T01:17:12;2.88;;;2.67;;
13807;SDS011;40769;51.512;5.494;2023-06-22T01:19:51;3.20;;;2.95;;
13807;SDS011;40769;51.512;5.494;2023-06-22T01:22:21;3.42;;;3.13;;
13807;SDS011;40769;51.512;5.494;2023-06-22T01:24:51;4.20;;;3.90;;
13807;SDS011;40769;51.512;5.494;2023-06-22T01:27:40;4.70;;;4.30;;
13807;SDS011;40769;51.512;5.494;2023-06-22T01:30:13;3.40;;;3.20;;
13807;SDS011;40769;51.512;5.494;2023-06-22T01:32:41;3.15;;;2.92;;
13807;SDS011;40769;51.512;5.494;2023-06-22T01:35:07;3.88;;;3.58;;
13807;SDS011;40769;51.512;5.494;2023-06-22T01:37:35;4.35;;;4.05;;
13807;SDS011;40769;51.512;5.494;2023-06-22T01:40:02;4.28;;;3.97;;
13807;SDS011;40769;51.512;5.494;2023-06-22T01:42:32;4.88;;;4.38;;
13807;SDS011;40769;51.512;5.494;2023-06-22T01:44:58;4.93;;;4.53;;
13807;SDS011;40769;51.512;5.494;2023-06-22T01:47:25;6.32;;;5.82;;
13807;SDS011;40769;51.512;5.494;2023-06-22T01:49:52;5.85;;;5.35;;
13807;SDS011;40769;51.512;5.494;2023-06-22T01:52:18;5.13;;;4.38;;
13807;SDS011;40769;51.512;5.494;2023-06-22T01:54:46;4.10;;;3.80;;
13807;SDS011;40769;51.512;5.494;2023-06-22T01:57:12;3.92;;;3.63;;
13807;SDS011;40769;51.512;5.494;2023-06-22T02:00:20;4.07;;;3.78;;
13807;SDS011;40769;51.512;5.494;2023-06-22T02:02:27;6.40;;;5.80;;
13807;SDS011;40769;51.512;5.494;2023-06-22T02:05:07;5.10;;;4.70;;
13807;SDS011;40769;51.512;5.494;2023-06-22T02:08:20;4.20;;;3.80;;
13807;SDS011;40769;51.512;5.494;2023-06-22T02:10:40;4.68;;;4.15;;
13807;SDS011;40769;51.512;5.494;2023-06-22T02:13:07;4.13;;;3.83;;
13807;SDS011;40769;51.512;5.494;2023-06-22T02:15:34;6.63;;;6.03;;
13807;SDS011;40769;51.512;5.494;2023-06-22T02:18:01;7.32;;;6.57;;
13807;SDS011;40769;51.512;5.494;2023-06-22T02:20:26;6.15;;;5.65;;
13807;SDS011;40769;51.512;5.494;2023-06-22T02:22:52;6.78;;;6.18;;
13807;SDS011;40769;51.512;5.494;2023-06-22T02:25:18;5.90;;;5.40;;
13807;SDS011;40769;51.512;5.494;2023-06-22T02:27:44;5.30;;;4.80;;
13807;SDS011;40769;51.512;5.494;2023-06-22T02:30:10;8.85;;;6.05;;
13807;SDS011;40769;51.512;5.494;2023-06-22T02:32:37;7.00;;;6.40;;
13807;SDS011;40769;51.512;5.494;2023-06-22T02:35:07;7.40;;;6.80;;
13807;SDS011;40769;51.512;5.494;2023-06-22T02:37:35;7.07;;;6.47;;
13807;SDS011;40769;51.512;5.494;2023-06-22T02:40:08;6.20;;;5.70;;
13807;SDS011;40769;51.512;5.494;2023-06-22T02:42:34;6.07;;;5.57;;
13807;SDS011;40769;51.512;5.494;2023-06-22T02:45:00;7.70;;;7.10;;
13807;SDS011;40769;51.512;5.494;2023-06-22T02:47:26;8.80;;;8.00;;
13807;SDS011;40769;51.512;5.494;2023-06-22T02:49:52;7.10;;;6.50;;
13807;SDS011;40769;51.512;5.494;2023-06-22T02:52:18;8.00;;;7.30;;
13807;SDS011;40769;51.512;5.494;2023-06-22T02:54:43;7.97;;;7.28;;
13807;SDS011;40769;51.512;5.494;2023-06-22T02:57:11;6.05;;;5.55;;
13807;SDS011;40769;51.512;5.494;2023-06-22T02:59:38;6.95;;;6.28;;
13807;SDS011;40769;51.512;5.494;2023-06-22T03:02:05;5.43;;;5.03;;
13807;SDS011;40769;51.512;5.494;2023-06-22T03:04:31;6.57;;;6.07;;
13807;SDS011;40769;51.512;5.494;2023-06-22T03:06:57;6.78;;;6.28;;
13807;SDS011;40769;51.512;5.494;2023-06-22T03:09:26;7.13;;;6.53;;
13807;SDS011;40769;51.512;5.494;2023-06-22T03:11:52;6.80;;;6.22;;
13807;SDS011;40769;51.512;5.494;2023-06-22T03:14:21;5.38;;;4.97;;
13807;SDS011;40769;51.512;5.494;2023-06-22T03:16:47;4.35;;;4.05;;
13807;SDS011;40769;51.512;5.494;2023-06-22T03:19:12;5.57;;;5.13;;
13807;SDS011;40769;51.512;5.494;2023-06-22T03:21:39;8.25;;;7.55;;
13807;SDS011;40769;51.512;5.494;2023-06-22T03:24:05;7.03;;;6.43;;
13807;SDS011;40769;51.512;5.494;2023-06-22T03:26:31;5.97;;;5.47;;
13807;SDS011;40769;51.512;5.494;2023-06-22T03:28:57;5.50;;;5.10;;
13807;SDS011;40769;51.512;5.494;2023-06-22T03:31:22;7.00;;;6.50;;
13807;SDS011;40769;51.512;5.494;2023-06-22T03:33:49;6.30;;;5.80;;
13807;SDS011;40769;51.512;5.494;2023-06-22T03:36:18;5.38;;;4.97;;
13807;SDS011;40769;51.512;5.494;2023-06-22T03:38:45;7.22;;;6.63;;
13807;SDS011;40769;51.512;5.494;2023-06-22T03:41:11;7.60;;;7.00;;
13807;SDS011;40769;51.512;5.494;2023-06-22T03:43:37;8.02;;;7.40;;
13807;SDS011;40769;51.512;5.494;2023-06-22T03:46:02;8.15;;;7.45;;
13807;SDS011;40769;51.512;5.494;2023-06-22T03:48:28;8.40;;;7.70;;
13807;SDS011;40769;51.512;5.494;2023-06-22T03:50:54;9.32;;;8.52;;
13807;SDS011;40769;51.512;5.494;2023-06-22T03:53:19;8.88;;;8.07;;
13807;SDS011;40769;51.512;5.494;2023-06-22T03:55:49;10.00;;;9.20;;
13807;SDS011;40769;51.512;5.494;2023-06-22T03:58:16;10.05;;;9.23;;
13807;SDS011;40769;51.512;5.494;2023-06-22T04:00:44;8.98;;;8.27;;
13807;SDS011;40769;51.512;5.494;2023-06-22T04:03:10;8.02;;;7.40;;
13807;SDS011;40769;51.512;5.494;2023-06-22T04:05:37;9.38;;;8.57;;
13807;SDS011;40769;51.512;5.494;2023-06-22T04:08:04;9.70;;;8.80;;
13807;SDS011;40769;51.512;5.494;2023-06-22T04:10:30;9.10;;;8.38;;
13807;SDS011;40769;51.512;5.494;2023-06-22T04:12:56;8.90;;;8.18;;
13807;SDS011;40769;51.512;5.494;2023-06-22T04:15:21;8.73;;;8.02;;
13807;SDS011;40769;51.512;5.494;2023-06-22T04:17:47;9.38;;;8.57;;
13807;SDS011;40769;51.512;5.494;2023-06-22T04:20:13;10.52;;;9.45;;
13807;SDS011;40769;51.512;5.494;2023-06-22T04:22:38;7.30;;;6.70;;
13807;SDS011;40769;51.512;5.494;2023-06-22T04:25:05;8.10;;;7.40;;
13807;SDS011;40769;51.512;5.494;2023-06-22T04:27:32;9.38;;;8.60;;
13807;SDS011;40769;51.512;5.494;2023-06-22T04:30:02;10.13;;;8.23;;
13807;SDS011;40769;51.512;5.494;2023-06-22T04:32:28;7.40;;;6.80;;
13807;SDS011;40769;51.512;5.494;2023-06-22T04:34:54;6.93;;;6.32;;
13807;SDS011;40769;51.512;5.494;2023-06-22T04:37:20;8.95;;;8.15;;
13807;SDS011;40769;51.512;5.494;2023-06-22T04:39:48;8.82;;;8.05;;
13807;SDS011;40769;51.512;5.494;2023-06-22T04:42:14;7.75;;;7.15;;
13807;SDS011;40769;51.512;5.494;2023-06-22T04:44:40;9.02;;;8.23;;
13807;SDS011;40769;51.512;5.494;2023-06-22T04:47:06;10.40;;;9.50;;
13807;SDS011;40769;51.512;5.494;2023-06-22T04:49:33;10.88;;;9.88;;
13807;SDS011;40769;51.512;5.494;2023-06-22T04:52:03;9.48;;;8.65;;
13807;SDS011;40769;51.512;5.494;2023-06-22T04:54:34;9.85;;;8.90;;
13807;SDS011;40769;51.512;5.494;2023-06-22T04:57:02;10.13;;;9.10;;
13807;SDS011;40769;51.512;5.494;2023-06-22T04:59:29;7.05;;;6.45;;
13807;SDS011;40769;51.512;5.494;2023-06-22T05:02:02;8.02;;;7.28;;
13807;SDS011;40769;51.512;5.494;2023-06-22T05:04:28;8.85;;;8.15;;
13807;SDS011;40769;51.512;5.494;2023-06-22T05:06:58;8.77;;;8.07;;
13807;SDS011;40769;51.512;5.494;2023-06-22T05:09:25;9.77;;;8.93;;
13807;SDS011;40769;51.512;5.494;2023-06-22T05:11:51;9.25;;;8.35;;
13807;SDS011;40769;51.512;5.494;2023-06-22T05:14:17;8.48;;;7.78;;
13807;SDS011;40769;51.512;5.494;2023-06-22T05:16:44;8.35;;;7.55;;
13807;SDS011;40769;51.512;5.494;2023-06-22T05:19:11;9.10;;;8.40;;
13807;SDS011;40769;51.512;5.494;2023-06-22T05:21:37;9.38;;;8.50;;
13807;SDS011;40769;51.512;5.494;2023-06-22T05:24:03;9.30;;;8.50;;
13807;SDS011;40769;51.512;5.494;2023-06-22T05:26:30;9.40;;;8.60;;
13807;SDS011;40769;51.512;5.494;2023-06-22T05:28:56;8.40;;;7.60;;
13807;SDS011;40769;51.512;5.494;2023-06-22T05:31:23;6.55;;;5.95;;
13807;SDS011;40769;51.512;5.494;2023-06-22T05:33:50;9.18;;;8.38;;
13807;SDS011;40769;51.512;5.494;2023-06-22T05:36:17;8.35;;;7.65;;
13807;SDS011;40769;51.512;5.494;2023-06-22T05:38:46;8.43;;;7.72;;
13807;SDS011;40769;51.512;5.494;2023-06-22T05:41:12;10.25;;;9.32;;
13807;SDS011;40769;51.512;5.494;2023-06-22T05:43:38;7.68;;;7.07;;
13807;SDS011;40769;51.512;5.494;2023-06-22T05:46:04;9.07;;;8.25;;
13807;SDS011;40769;51.512;5.494;2023-06-22T05:48:30;9.32;;;8.52;;
13807;SDS011;40769;51.512;5.494;2023-06-22T05:50:56;9.15;;;8.35;;
13807;SDS011;40769;51.512;5.494;2023-06-22T05:53:22;9.55;;;8.65;;
13807;SDS011;40769;51.512;5.494;2023-06-22T05:55:48;10.60;;;9.60;;
13807;SDS011;40769;51.512;5.494;2023-06-22T05:58:14;11.00;;;10.07;;
13807;SDS011;40769;51.512;5.494;2023-06-22T06:00:40;9.68;;;8.88;;
13807;SDS011;40769;51.512;5.494;2023-06-22T06:03:07;9.65;;;8.75;;
13807;SDS011;40769;51.512;5.494;2023-06-22T06:05:33;12.52;;;11.32;;
13807;SDS011;40769;51.512;5.494;2023-06-22T06:08:02;11.38;;;10.48;;
13807;SDS011;40769;51.512;5.494;2023-06-22T06:10:32;12.07;;;10.98;;
13807;SDS011;40769;51.512;5.494;2023-06-22T06:13:01;11.27;;;10.38;;
13807;SDS011;40769;51.512;5.494;2023-06-22T06:15:29;11.40;;;9.82;;
13807;SDS011;40769;51.512;5.494;2023-06-22T06:17:55;10.98;;;10.07;;
13807;SDS011;40769;51.512;5.494;2023-06-22T06:20:22;11.57;;;10.63;;
13807;SDS011;40769;51.512;5.494;2023-06-22T06:22:49;9.82;;;9.02;;
13807;SDS011;40769;51.512;5.494;2023-06-22T06:25:15;9.50;;;8.70;;
13807;SDS011;40769;51.512;5.494;2023-06-22T06:27:42;11.18;;;10.18;;
13807;SDS011;40769;51.512;5.494;2023-06-22T06:30:08;11.10;;;10.20;;
13807;SDS011;40769;51.512;5.494;2023-06-22T06:32:35;11.05;;;9.95;;
13807;SDS011;40769;51.512;5.494;2023-06-22T06:35:01;8.15;;;7.45;;
13807;SDS011;40769;51.512;5.494;2023-06-22T06:37:27;7.75;;;7.05;;
13807;SDS011;40769;51.512;5.494;2023-06-22T06:39:53;10.85;;;9.85;;
13807;SDS011;40769;51.512;5.494;2023-06-22T06:42:18;9.57;;;7.63;;
13807;SDS011;40769;51.512;5.494;2023-06-22T06:44:44;8.85;;;7.50;;
13807;SDS011;40769;51.512;5.494;2023-06-22T06:47:10;8.30;;;7.43;;
13807;SDS011;40769;51.512;5.494;2023-06-22T06:49:36;9.45;;;8.45;;
13807;SDS011;40769;51.512;5.494;2023-06-22T06:52:01;7.78;;;7.07;;
13807;SDS011;40769;51.512;5.494;2023-06-22T06:54:27;7.28;;;6.57;;
13807;SDS011;40769;51.512;5.494;2023-06-22T06:56:53;9.13;;;8.20;;
13807;SDS011;40769;51.512;5.494;2023-06-22T06:59:18;8.65;;;7.88;;
13807;SDS011;40769;51.512;5.494;2023-06-22T07:01:44;7.97;;;7.28;;
13807;SDS011;40769;51.512;5.494;2023-06-22T07:04:10;9.80;;;8.90;;
13807;SDS011;40769;51.512;5.494;2023-06-22T07:06:35;8.90;;;8.00;;
13807;SDS011;40769;51.512;5.494;2023-06-22T07:09:01;9.10;;;8.20;;
13807;SDS011;40769;51.512;5.494;2023-06-22T07:11:28;8.48;;;7.57;;
13807;SDS011;40769;51.512;5.494;2023-06-22T07:13:54;6.32;;;5.80;;
13807;SDS011;40769;51.512;5.494;2023-06-22T07:16:20;5.50;;;5.00;;
13807;SDS011;40769;51.512;5.494;2023-06-22T07:18:46;8.75;;;7.53;;
13807;SDS011;40769;51.512;5.494;2023-06-22T07:21:11;7.30;;;6.63;;
13807;SDS011;40769;51.512;5.494;2023-06-22T07:23:37;8.75;;;7.93;;
13807;SDS011;40769;51.512;5.494;2023-06-22T07:26:02;8.93;;;8.05;;
13807;SDS011;40769;51.512;5.494;2023-06-22T07:28:31;10.77;;;9.73;;
13807;SDS011;40769;51.512;5.494;2023-06-22T07:31:01;6.53;;;5.93;;
13807;SDS011;40769;51.512;5.494;2023-06-22T07:33:28;8.38;;;7.57;;
13807;SDS011;40769;51.512;5.494;2023-06-22T07:35:53;7.85;;;7.15;;
13807;SDS011;40769;51.512;5.494;2023-06-22T07:38:19;9.35;;;8.38;;
13807;SDS011;40769;51.512;5.494;2023-06-22T07:40:45;6.88;;;6.28;;
13807;SDS011;40769;51.512;5.494;2023-06-22T07:43:10;6.55;;;5.90;;
13807;SDS011;40769;51.512;5.494;2023-06-22T07:45:37;8.10;;;7.28;;
13807;SDS011;40769;51.512;5.494;2023-06-22T07:48:05;8.18;;;7.38;;
13807;SDS011;40769;51.512;5.494;2023-06-22T07:50:30;9.90;;;8.98;;
13807;SDS011;40769;51.512;5.494;2023-06-22T07:52:56;10.32;;;9.43;;
13807;SDS011;40769;51.512;5.494;2023-06-22T07:55:22;9.32;;;8.50;;
13807;SDS011;40769;51.512;5.494;2023-06-22T07:57:48;12.05;;;10.85;;
13807;SDS011;40769;51.512;5.494;2023-06-22T08:00:16;12.27;;;10.45;;
13807;SDS011;40769;51.512;5.494;2023-06-22T08:02:44;11.82;;;10.63;;
13807;SDS011;40769;51.512;5.494;2023-06-22T08:05:11;11.52;;;10.40;;
13807;SDS011;40769;51.512;5.494;2023-06-22T08:07:37;12.35;;;11.15;;
13807;SDS011;40769;51.512;5.494;2023-06-22T08:10:09;12.93;;;11.73;;
13807;SDS011;40769;51.512;5.494;2023-06-22T08:12:36;12.48;;;11.18;;
13807;SDS011;40769;51.512;5.494;2023-06-22T08:15:01;12.65;;;11.45;;
13807;SDS011;40769;51.512;5.494;2023-06-22T08:17:28;12.48;;;11.27;;
13807;SDS011;40769;51.512;5.494;2023-06-22T08:19:53;11.85;;;10.75;;
13807;SDS011;40769;51.512;5.494;2023-06-22T08:22:19;11.13;;;10.10;;
13807;SDS011;40769;51.512;5.494;2023-06-22T08:24:44;10.95;;;9.93;;
13807;SDS011;40769;51.512;5.494;2023-06-22T08:27:10;11.77;;;10.65;;
13807;SDS011;40769;51.512;5.494;2023-06-22T08:29:40;13.70;;;10.68;;
13807;SDS011;40769;51.512;5.494;2023-06-22T08:32:08;11.60;;;10.60;;
13807;SDS011;40769;51.512;5.494;2023-06-22T08:34:35;12.13;;;10.95;;
13807;SDS011;40769;51.512;5.494;2023-06-22T08:37:03;11.55;;;10.35;;
13807;SDS011;40769;51.512;5.494;2023-06-22T08:39:31;11.85;;;10.73;;
13807;SDS011;40769;51.512;5.494;2023-06-22T08:41:57;11.82;;;10.15;;
13807;SDS011;40769;51.512;5.494;2023-06-22T08:44:22;11.13;;;10.02;;
13807;SDS011;40769;51.512;5.494;2023-06-22T08:46:48;10.07;;;9.07;;
13807;SDS011;40769;51.512;5.494;2023-06-22T08:49:14;11.63;;;10.45;;
13807;SDS011;40769;51.512;5.494;2023-06-22T08:51:40;10.25;;;9.00;;
13807;SDS011;40769;51.512;5.494;2023-06-22T08:54:05;9.63;;;8.73;;
13807;SDS011;40769;51.512;5.494;2023-06-22T08:56:31;9.18;;;8.23;;
13807;SDS011;40769;51.512;5.494;2023-06-22T08:58:57;8.60;;;7.80;;
13807;SDS011;40769;51.512;5.494;2023-06-22T09:01:25;9.75;;;8.85;;
13807;SDS011;40769;51.512;5.494;2023-06-22T09:03:51;8.52;;;7.72;;
13807;SDS011;40769;51.512;5.494;2023-06-22T09:06:20;8.82;;;7.93;;
13807;SDS011;40769;51.512;5.494;2023-06-22T09:08:46;8.93;;;8.10;;
13807;SDS011;40769;51.512;5.494;2023-06-22T09:11:13;8.55;;;7.75;;
13807;SDS011;40769;51.512;5.494;2023-06-22T09:13:38;8.10;;;7.20;;
13807;SDS011;40769;51.512;5.494;2023-06-22T09:16:04;8.15;;;7.35;;
13807;SDS011;40769;51.512;5.494;2023-06-22T09:18:30;9.02;;;8.05;;
13807;SDS011;40769;51.512;5.494;2023-06-22T09:20:56;8.68;;;7.57;;
13807;SDS011;40769;51.512;5.494;2023-06-22T09:23:21;7.43;;;6.70;;
13807;SDS011;40769;51.512;5.494;2023-06-22T09:25:47;9.48;;;8.68;;
13807;SDS011;40769;51.512;5.494;2023-06-22T09:28:13;7.97;;;6.97;;
13807;SDS011;40769;51.512;5.494;2023-06-22T09:30:39;8.50;;;7.60;;
13807;SDS011;40769;51.512;5.494;2023-06-22T09:33:05;8.35;;;7.60;;
13807;SDS011;40769;51.512;5.494;2023-06-22T09:35:30;6.70;;;6.10;;
13807;SDS011;40769;51.512;5.494;2023-06-22T09:37:56;8.77;;;7.47;;
13807;SDS011;40769;51.512;5.494;2023-06-22T09:40:22;8.50;;;7.70;;
13807;SDS011;40769;51.512;5.494;2023-06-22T09:42:47;7.05;;;6.35;;
13807;SDS011;40769;51.512;5.494;2023-06-22T09:45:13;7.68;;;6.97;;
13807;SDS011;40769;51.512;5.494;2023-06-22T09:47:38;7.80;;;6.90;;
13807;SDS011;40769;51.512;5.494;2023-06-22T09:50:05;9.27;;;7.38;;
13807;SDS011;40769;51.512;5.494;2023-06-22T09:52:31;8.98;;;8.05;;
13807;SDS011;40769;51.512;5.494;2023-06-22T09:54:56;8.88;;;8.02;;
13807;SDS011;40769;51.512;5.494;2023-06-22T09:57:22;8.30;;;7.47;;
13807;SDS011;40769;51.512;5.494;2023-06-22T09:59:48;7.40;;;6.72;;
13807;SDS011;40769;51.512;5.494;2023-06-22T10:02:14;7.50;;;6.80;;
13807;SDS011;40769;51.512;5.494;2023-06-22T10:04:39;8.38;;;7.57;;
13807;SDS011;40769;51.512;5.494;2023-06-22T10:07:05;7.50;;;6.80;;
13807;SDS011;40769;51.512;5.494;2023-06-22T10:09:34;8.90;;;7.57;;
13807;SDS011;40769;51.512;5.494;2023-06-22T10:12:02;10.75;;;7.65;;
13807;SDS011;40769;51.512;5.494;2023-06-22T10:14:28;8.23;;;6.93;;
13807;SDS011;40769;51.512;5.494;2023-06-22T10:16:54;8.25;;;7.05;;
13807;SDS011;40769;51.512;5.494;2023-06-22T10:19:20;6.45;;;5.90;;
13807;SDS011;40769;51.512;5.494;2023-06-22T10:21:45;7.95;;;7.15;;
13807;SDS011;40769;51.512;5.494;2023-06-22T10:24:11;9.20;;;7.65;;
13807;SDS011;40769;51.512;5.494;2023-06-22T10:26:37;7.97;;;6.88;;
13807;SDS011;40769;51.512;5.494;2023-06-22T10:29:03;7.68;;;6.97;;
13807;SDS011;40769;51.512;5.494;2023-06-22T10:31:28;8.02;;;7.05;;
13807;SDS011;40769;51.512;5.494;2023-06-22T10:33:54;6.90;;;6.30;;
13807;SDS011;40769;51.512;5.494;2023-06-22T10:36:28;8.27;;;6.32;;
13807;SDS011;40769;51.512;5.494;2023-06-22T10:38:53;4.95;;;4.50;;
13807;SDS011;40769;51.512;5.494;2023-06-22T10:41:20;5.03;;;4.40;;
13807;SDS011;40769;51.512;5.494;2023-06-22T10:43:46;5.70;;;5.20;;
13807;SDS011;40769;51.512;5.494;2023-06-22T10:46:15;6.93;;;6.22;;
13807;SDS011;40769;51.512;5.494;2023-06-22T10:48:40;5.20;;;4.70;;
13807;SDS011;40769;51.512;5.494;2023-06-22T10:51:06;7.97;;;6.63;;
13807;SDS011;40769;51.512;5.494;2023-06-22T10:53:31;8.82;;;7.97;;
13807;SDS011;40769;51.512;5.494;2023-06-22T10:55:57;9.45;;;8.57;;
13807;SDS011;40769;51.512;5.494;2023-06-22T10:58:23;6.53;;;5.88;;
13807;SDS011;40769;51.512;5.494;2023-06-22T11:00:48;10.07;;;9.27;;
13807;SDS011;40769;51.512;5.494;2023-06-22T11:03:14;8.05;;;7.45;;
13807;SDS011;40769;51.512;5.494;2023-06-22T11:05:40;10.30;;;9.40;;
13807;SDS011;40769;51.512;5.494;2023-06-22T11:08:06;7.93;;;7.22;;
13807;SDS011;40769;51.512;5.494;2023-06-22T11:10:32;11.05;;;9.98;;
13807;SDS011;40769;51.512;5.494;2023-06-22T11:12:58;10.82;;;9.98;;
13807;SDS011;40769;51.512;5.494;2023-06-22T11:15:24;9.73;;;8.93;;
13807;SDS011;40769;51.512;5.494;2023-06-22T11:17:50;13.93;;;12.82;;
13807;SDS011;40769;51.512;5.494;2023-06-22T11:20:16;12.85;;;11.75;;
13807;SDS011;40769;51.512;5.494;2023-06-22T11:22:42;14.05;;;12.65;;
13807;SDS011;40769;51.512;5.494;2023-06-22T11:25:07;14.25;;;13.02;;
13807;SDS011;40769;51.512;5.494;2023-06-22T11:27:33;10.30;;;9.43;;
13807;SDS011;40769;51.512;5.494;2023-06-22T11:29:59;11.18;;;10.27;;
13807;SDS011;40769;51.512;5.494;2023-06-22T11:32:25;13.30;;;12.10;;
13807;SDS011;40769;51.512;5.494;2023-06-22T11:34:51;9.32;;;8.52;;
13807;SDS011;40769;51.512;5.494;2023-06-22T11:37:16;12.25;;;11.23;;
13807;SDS011;40769;51.512;5.494;2023-06-22T11:39:42;14.95;;;13.70;;
13807;SDS011;40769;51.512;5.494;2023-06-22T11:42:08;10.65;;;9.75;;
13807;SDS011;40769;51.512;5.494;2023-06-22T11:44:34;9.48;;;8.65;;
13807;SDS011;40769;51.512;5.494;2023-06-22T11:47:00;15.85;;;14.40;;
13807;SDS011;40769;51.512;5.494;2023-06-22T11:49:26;19.38;;;17.80;;
13807;SDS011;40769;51.512;5.494;2023-06-22T11:51:52;19.83;;;18.02;;
13807;SDS011;40769;51.512;5.494;2023-06-22T11:54:18;20.42;;;18.63;;
13807;SDS011;40769;51.512;5.494;2023-06-22T11:56:44;21.20;;;19.20;;
13807;SDS011;40769;51.512;5.494;2023-06-22T11:59:09;19.90;;;18.05;;
13807;SDS011;40769;51.512;5.494;2023-06-22T12:01:35;20.00;;;18.30;;
13807;SDS011;40769;51.512;5.494;2023-06-22T12:04:01;21.00;;;19.20;;
13807;SDS011;40769;51.512;5.494;2023-06-22T12:06:30;24.65;;;22.50;;
13807;SDS011;40769;51.512;5.494;2023-06-22T12:09:03;24.38;;;22.27;;
13807;SDS011;40769;51.512;5.494;2023-06-22T12:11:30;24.95;;;22.75;;
13807;SDS011;40769;51.512;5.494;2023-06-22T12:13:55;25.20;;;23.10;;
13807;SDS011;40769;51.512;5.494;2023-06-22T12:16:21;26.17;;;23.98;;
13807;SDS011;40769;51.512;5.494;2023-06-22T12:18:47;25.27;;;23.00;;
13807;SDS011;40769;51.512;5.494;2023-06-22T12:21:13;26.90;;;24.63;;
13807;SDS011;40769;51.512;5.494;2023-06-22T12:23:39;25.30;;;23.10;;
13807;SDS011;40769;51.512;5.494;2023-06-22T12:26:04;26.13;;;24.02;;
13807;SDS011;40769;51.512;5.494;2023-06-22T12:28:30;24.60;;;22.58;;
13807;SDS011;40769;51.512;5.494;2023-06-22T12:30:56;25.38;;;22.88;;
13807;SDS011;40769;51.512;5.494;2023-06-22T12:33:21;21.17;;;19.33;;
13807;SDS011;40769;51.512;5.494;2023-06-22T12:35:47;22.38;;;20.52;;
13807;SDS011;40769;51.512;5.494;2023-06-22T12:38:14;22.45;;;20.55;;
13807;SDS011;40769;51.512;5.494;2023-06-22T12:40:39;23.40;;;21.45;;
13807;SDS011;40769;51.512;5.494;2023-06-22T12:43:05;23.23;;;21.33;;
13807;SDS011;40769;51.512;5.494;2023-06-22T12:45:32;23.27;;;21.17;;
13807;SDS011;40769;51.512;5.494;2023-06-22T12:47:58;22.95;;;20.95;;
13807;SDS011;40769;51.512;5.494;2023-06-22T12:50:24;23.85;;;21.73;;
13807;SDS011;40769;51.512;5.494;2023-06-22T12:52:50;22.67;;;20.80;;
13807;SDS011;40769;51.512;5.494;2023-06-22T12:55:16;22.42;;;20.52;;
13807;SDS011;40769;51.512;5.494;2023-06-22T12:57:42;20.77;;;19.15;;
13807;SDS011;40769;51.512;5.494;2023-06-22T13:00:08;22.23;;;20.48;;
13807;SDS011;40769;51.512;5.494;2023-06-22T13:02:35;24.00;;;21.80;;
13807;SDS011;40769;51.512;5.494;2023-06-22T13:05:01;23.13;;;21.30;;
13807;SDS011;40769;51.512;5.494;2023-06-22T13:07:27;22.38;;;20.58;;
13807;SDS011;40769;51.512;5.494;2023-06-22T13:09:53;21.98;;;20.08;;
13807;SDS011;40769;51.512;5.494;2023-06-22T13:12:19;22.90;;;20.60;;
13807;SDS011;40769;51.512;5.494;2023-06-22T13:14:45;23.38;;;21.42;;
13807;SDS011;40769;51.512;5.494;2023-06-22T13:17:12;23.27;;;21.30;;
13807;SDS011;40769;51.512;5.494;2023-06-22T13:19:39;22.92;;;21.05;;
13807;SDS011;40769;51.512;5.494;2023-06-22T13:22:04;21.42;;;19.60;;
13807;SDS011;40769;51.512;5.494;2023-06-22T13:24:30;20.58;;;18.85;;
13807;SDS011;40769;51.512;5.494;2023-06-22T13:26:56;22.35;;;20.55;;
13807;SDS011;40769;51.512;5.494;2023-06-22T13:29:22;20.85;;;19.13;;
13807;SDS011;40769;51.512;5.494;2023-06-22T13:31:47;21.13;;;19.40;;
13807;SDS011;40769;51.512;5.494;2023-06-22T13:34:13;20.48;;;18.88;;
13807;SDS011;40769;51.512;5.494;2023-06-22T13:36:38;16.23;;;14.93;;
13807;SDS011;40769;51.512;5.494;2023-06-22T13:39:04;19.48;;;17.77;;
13807;SDS011;40769;51.512;5.494;2023-06-22T13:41:30;20.75;;;19.05;;
13807;SDS011;40769;51.512;5.494;2023-06-22T13:43:55;19.52;;;17.92;;
13807;SDS011;40769;51.512;5.494;2023-06-22T13:46:21;20.45;;;18.73;;
13807;SDS011;40769;51.512;5.494;2023-06-22T13:48:46;18.65;;;17.17;;
13807;SDS011;40769;51.512;5.494;2023-06-22T13:51:12;19.67;;;18.10;;
13807;SDS011;40769;51.512;5.494;2023-06-22T13:53:38;18.23;;;16.83;;
13807;SDS011;40769;51.512;5.494;2023-06-22T13:56:03;20.00;;;18.48;;
13807;SDS011;40769;51.512;5.494;2023-06-22T13:58:29;19.70;;;18.20;;
13807;SDS011;40769;51.512;5.494;2023-06-22T14:00:54;19.20;;;17.52;;
13807;SDS011;40769;51.512;5.494;2023-06-22T14:03:20;19.55;;;17.92;;
13807;SDS011;40769;51.512;5.494;2023-06-22T14:05:46;18.92;;;17.30;;
13807;SDS011;40769;51.512;5.494;2023-06-22T14:08:12;19.42;;;17.92;;
13807;SDS011;40769;51.512;5.494;2023-06-22T14:10:38;19.50;;;17.90;;
13807;SDS011;40769;51.512;5.494;2023-06-22T14:13:03;19.75;;;18.05;;
13807;SDS011;40769;51.512;5.494;2023-06-22T14:15:31;19.83;;;18.23;;
13807;SDS011;40769;51.512;5.494;2023-06-22T14:17:57;22.25;;;20.45;;
13807;SDS011;40769;51.512;5.494;2023-06-22T14:20:22;21.98;;;20.08;;
13807;SDS011;40769;51.512;5.494;2023-06-22T14:22:48;22.77;;;20.92;;
13807;SDS011;40769;51.512;5.494;2023-06-22T14:25:13;20.25;;;18.60;;
13807;SDS011;40769;51.512;5.494;2023-06-22T14:27:39;22.00;;;20.15;;
13807;SDS011;40769;51.512;5.494;2023-06-22T14:30:05;20.67;;;18.88;;
13807;SDS011;40769;51.512;5.494;2023-06-22T14:32:31;21.77;;;19.98;;
13807;SDS011;40769;51.512;5.494;2023-06-22T14:34:57;22.88;;;20.85;;